Time;durP1;ratioP1;P1;durP2;ratioP2;P2;SDS_P1;SDS_P2;PMS_P1;PMS_P2;Temp;Humidity;BMP_temperature;BMP_pressure;BME280_temperature;BME280_humidity;BME280_pressure;Samples;Min_cycle;Max_cycle;Signal;HPM_P1;HPM_P2
2022/03/28 00:01:16;;;;;;;;;;;7.70;99.90;;;;;;5067405;28;19920;-79
2022/03/28 00:03:42;;;;;;;;;;;7.70;99.90;;;;;;5042368;28;20270;-79
2022/03/28 00:06:07;;;;;;;;;;;7.70;99.90;;;;;;5050039;28;19955;-79
2022/03/28 00:08:33;;;;;;;;;;;7.70;99.90;;;;;;5040469;28;20016;-79
2022/03/28 00:10:59;;;;;;;;;;;7.60;99.90;;;;;;5043765;28;19923;-80
2022/03/28 00:13:24;;;;;;;;;;;7.60;99.90;;;;;;5042466;28;20315;-79
2022/03/28 00:15:50;;;;;;;;;;;7.60;99.90;;;;;;5062718;28;19921;-79
2022/03/28 00:18:15;;;;;;;;;;;7.60;99.90;;;;;;5048020;28;20420;-79
2022/03/28 00:20:41;;;;;;;;;;;7.60;99.90;;;;;;5051805;28;19917;-80
2022/03/28 00:23:07;;;;;;;;;;;7.50;99.90;;;;;;5064986;28;19971;-79
2022/03/28 00:25:33;;;;;;;;;;;7.50;99.90;;;;;;5043171;28;19916;-79
2022/03/28 00:27:58;;;;;;;;;;;7.40;99.90;;;;;;5043559;28;19952;-79
2022/03/28 00:30:24;;;;;;;;;;;7.40;99.90;;;;;;5045457;28;20437;-80
2022/03/28 00:32:49;;;;;;;;;;;7.40;99.90;;;;;;5043563;28;19924;-79
2022/03/28 00:35:15;;;;;;;;;;;7.40;99.90;;;;;;5050162;28;19936;-80
2022/03/28 00:37:41;;;;;;;;;;;7.50;99.90;;;;;;5069550;28;19919;-79
2022/03/28 00:40:07;;;;;;;;;;;7.40;99.90;;;;;;5036677;28;20315;-79
2022/03/28 00:42:33;;;;;;;;;;;7.40;99.90;;;;;;5069343;28;20017;-79
2022/03/28 00:44:58;;;;;;;;;;;7.40;99.90;;;;;;5050000;28;20382;-79
2022/03/28 00:47:24;;;;;;;;;;;7.30;99.90;;;;;;5048586;28;19917;-79
2022/03/28 00:49:49;;;;;;;;;;;7.30;99.90;;;;;;5065629;28;19935;-79
2022/03/28 00:52:15;;;;;;;;;;;7.30;99.90;;;;;;5091397;23;19985;-80
2022/03/28 00:54:41;;;;;;;;;;;7.20;99.90;;;;;;5092426;28;20309;-82
2022/03/28 00:57:06;;;;;;;;;;;7.20;99.90;;;;;;5075110;28;19979;-80
2022/03/28 00:59:32;;;;;;;;;;;7.20;99.90;;;;;;5071288;28;20015;-80
2022/03/28 01:01:58;;;;;;;;;;;7.10;99.90;;;;;;5127198;27;19920;-81
2022/03/28 01:04:24;;;;;;;;;;;7.10;99.90;;;;;;5071484;28;19920;-81
2022/03/28 01:06:51;;;;;;;;;;;7.00;99.90;;;;;;5080781;28;19965;-82
2022/03/28 01:09:17;;;;;;;;;;;7.00;99.90;;;;;;5073457;28;19923;-81
2022/03/28 01:11:44;;;;;;;;;;;7.00;99.90;;;;;;5084066;28;19916;-81
2022/03/28 01:14:10;;;;;;;;;;;6.90;99.90;;;;;;5090112;28;19920;-81
2022/03/28 01:18:05;;;;;;;;;;;6.80;99.90;;;;;;5085501;28;19971;-81
2022/03/28 01:19:23;;;;;;;;;;;6.80;99.90;;;;;;5091931;28;19965;-82
2022/03/28 01:21:49;;;;;;;;;;;6.70;99.90;;;;;;5081244;28;19916;-80
2022/03/28 01:24:15;;;;;;;;;;;6.70;99.90;;;;;;5114048;28;19920;-81
2022/03/28 01:26:40;;;;;;;;;;;6.60;99.90;;;;;;5078862;28;19923;-81
2022/03/28 01:29:06;;;;;;;;;;;6.60;99.90;;;;;;5081292;28;19916;-81
2022/03/28 01:31:31;;;;;;;;;;;6.50;99.90;;;;;;5082437;28;19955;-81
2022/03/28 01:33:57;;;;;;;;;;;6.50;99.90;;;;;;5100466;28;19928;-81
2022/03/28 01:36:28;;;;;;;;;;;6.50;99.90;;;;;;5099229;28;19969;-82
2022/03/28 01:38:54;;;;;;;;;;;6.50;99.90;;;;;;5092647;28;19920;-80
2022/03/28 01:41:19;;;;;;;;;;;6.40;99.90;;;;;;5075848;28;19920;-81
2022/03/28 01:43:45;;;;;;;;;;;6.40;99.90;;;;;;5075564;28;20381;-80
2022/03/28 01:46:10;;;;;;;;;;;6.40;99.90;;;;;;5073348;28;19969;-80
2022/03/28 01:48:36;;;;;;;;;;;6.40;99.90;;;;;;5071748;28;20271;-81
2022/03/28 01:51:02;;;;;;;;;;;6.40;99.90;;;;;;5069692;28;19946;-80
2022/03/28 01:53:27;;;;;;;;;;;6.40;99.90;;;;;;5092542;28;19922;-80
2022/03/28 01:55:53;;;;;;;;;;;6.30;99.90;;;;;;5092133;28;19919;-80
2022/03/28 01:58:18;;;;;;;;;;;6.40;99.90;;;;;;5074928;28;20013;-80
2022/03/28 02:00:44;;;;;;;;;;;6.40;99.90;;;;;;5071683;28;19916;-81
2022/03/28 02:03:09;;;;;;;;;;;6.30;99.90;;;;;;5096656;28;19918;-81
2022/03/28 02:05:35;;;;;;;;;;;6.30;99.90;;;;;;5092060;28;20410;-81
2022/03/28 02:08:02;;;;;;;;;;;6.30;99.90;;;;;;5077102;28;19935;-80
2022/03/28 02:10:27;;;;;;;;;;;6.30;99.90;;;;;;5094292;28;19916;-80
2022/03/28 02:12:53;;;;;;;;;;;6.30;99.90;;;;;;5076683;28;19920;-80
2022/03/28 02:15:19;;;;;;;;;;;6.30;99.90;;;;;;5092990;28;20275;-81
2022/03/28 02:17:44;;;;;;;;;;;6.20;99.90;;;;;;5075988;28;19920;-81
2022/03/28 02:20:10;;;;;;;;;;;6.20;99.90;;;;;;5073187;28;20357;-81
2022/03/28 02:22:37;;;;;;;;;;;6.20;99.90;;;;;;5092164;28;19913;-81
2022/03/28 02:25:03;;;;;;;;;;;6.20;99.90;;;;;;5071284;28;19928;-81
2022/03/28 02:27:29;;;;;;;;;;;6.10;99.90;;;;;;5090555;28;19919;-81
2022/03/28 02:29:54;;;;;;;;;;;6.10;99.90;;;;;;5093821;28;19916;-80
2022/03/28 02:32:20;;;;;;;;;;;6.10;99.90;;;;;;5093034;28;19962;-81
2022/03/28 02:34:45;;;;;;;;;;;6.10;99.90;;;;;;5095138;28;20411;-81
2022/03/28 02:37:11;;;;;;;;;;;6.10;99.90;;;;;;5093736;28;19912;-81
2022/03/28 02:39:36;;;;;;;;;;;6.10;99.90;;;;;;5094964;28;19911;-81
2022/03/28 02:42:03;;;;;;;;;;;6.00;99.90;;;;;;5094746;28;20395;-81
2022/03/28 02:44:28;;;;;;;;;;;6.00;99.90;;;;;;5093332;28;19912;-80
2022/03/28 02:46:54;;;;;;;;;;;5.90;99.90;;;;;;5118054;27;19920;-81
2022/03/28 02:49:19;;;;;;;;;;;5.90;99.90;;;;;;5076167;28;21067;-81
2022/03/28 02:51:45;;;;;;;;;;;5.90;99.90;;;;;;5076322;28;19927;-81
2022/03/28 02:54:11;;;;;;;;;;;5.80;99.90;;;;;;5073543;28;19917;-81
2022/03/28 02:56:37;;;;;;;;;;;5.80;99.90;;;;;;5093009;28;19908;-80
2022/03/28 02:59:03;;;;;;;;;;;5.80;99.90;;;;;;5093571;28;19998;-81
2022/03/28 03:01:28;;;;;;;;;;;5.80;99.90;;;;;;5094536;28;19908;-81
2022/03/28 03:03:54;;;;;;;;;;;5.70;99.90;;;;;;5093752;28;20015;-81
2022/03/28 03:06:19;;;;;;;;;;;5.70;99.90;;;;;;5103192;28;19947;-82
2022/03/28 03:08:45;;;;;;;;;;;5.70;99.90;;;;;;5093830;28;19908;-81
2022/03/28 03:11:11;;;;;;;;;;;5.60;99.90;;;;;;5094684;28;19912;-80
2022/03/28 03:13:36;;;;;;;;;;;5.60;99.90;;;;;;5074789;28;19912;-81
2022/03/28 03:16:03;;;;;;;;;;;5.60;99.90;;;;;;5093857;28;19935;-81
2022/03/28 03:18:29;;;;;;;;;;;5.50;99.90;;;;;;5093500;28;19920;-81
2022/03/28 03:20:54;;;;;;;;;;;5.50;99.90;;;;;;5094688;28;19912;-82
2022/03/28 03:23:20;;;;;;;;;;;5.50;99.90;;;;;;5084797;28;19981;-81
2022/03/28 03:25:46;;;;;;;;;;;5.50;99.90;;;;;;5078650;28;19912;-81
2022/03/28 03:28:11;;;;;;;;;;;5.40;99.90;;;;;;5096677;28;20358;-82
2022/03/28 03:30:37;;;;;;;;;;;5.40;99.90;;;;;;5095153;28;19916;-81
2022/03/28 03:33:03;;;;;;;;;;;5.30;99.90;;;;;;5076573;28;19923;-81
2022/03/28 03:35:29;;;;;;;;;;;5.30;99.90;;;;;;5076631;28;19920;-82
2022/03/28 03:37:54;;;;;;;;;;;5.30;99.90;;;;;;5077622;28;19923;-82
2022/03/28 03:40:20;;;;;;;;;;;5.30;99.90;;;;;;5075670;28;19959;-81
2022/03/28 03:42:45;;;;;;;;;;;5.30;99.90;;;;;;5077856;28;19924;-81
2022/03/28 03:45:11;;;;;;;;;;;5.20;99.90;;;;;;5078036;28;19927;-82
2022/03/28 03:47:36;;;;;;;;;;;5.20;99.90;;;;;;5072332;28;20424;-82
2022/03/28 03:50:03;;;;;;;;;;;5.20;99.90;;;;;;5073525;28;19944;-82
2022/03/28 03:52:28;;;;;;;;;;;5.20;99.90;;;;;;5076032;28;19920;-81
2022/03/28 03:54:54;;;;;;;;;;;5.10;99.90;;;;;;5071848;28;20333;-81
2022/03/28 03:57:19;;;;;;;;;;;5.10;99.90;;;;;;5075215;28;19924;-82
2022/03/28 03:59:45;;;;;;;;;;;5.10;99.90;;;;;;5091620;28;19912;-82
2022/03/28 04:02:11;;;;;;;;;;;5.10;99.90;;;;;;5075561;28;19916;-82
2022/03/28 04:04:36;;;;;;;;;;;5.10;99.90;;;;;;5072188;28;20416;-82
2022/03/28 04:07:02;;;;;;;;;;;5.10;99.90;;;;;;5093040;28;19912;-82
2022/03/28 04:09:28;;;;;;;;;;;5.20;99.90;;;;;;5090845;28;19947;-82
2022/03/28 04:11:53;;;;;;;;;;;5.20;99.90;;;;;;5077865;28;20275;-82
2022/03/28 04:14:19;;;;;;;;;;;5.20;99.90;;;;;;5074830;28;19943;-82
2022/03/28 04:16:44;;;;;;;;;;;5.10;99.90;;;;;;5095215;28;19955;-83
2022/03/28 04:19:10;;;;;;;;;;;5.10;99.90;;;;;;5077811;28;19916;-82
2022/03/28 04:21:36;;;;;;;;;;;5.10;99.90;;;;;;5075390;28;19938;-83
2022/03/28 04:24:01;;;;;;;;;;;5.10;99.90;;;;;;5089318;28;19917;-82
2022/03/28 04:26:27;;;;;;;;;;;5.10;99.90;;;;;;5094596;28;19916;-81
2022/03/28 04:28:52;;;;;;;;;;;5.00;99.90;;;;;;5086985;28;19920;-83
2022/03/28 04:31:18;;;;;;;;;;;5.00;99.90;;;;;;5092580;28;19916;-83
2022/03/28 04:33:43;;;;;;;;;;;5.00;99.90;;;;;;5072401;28;19921;-82
2022/03/28 04:36:08;;;;;;;;;;;5.00;99.90;;;;;;5071391;28;19923;-82
2022/03/28 04:38:34;;;;;;;;;;;5.00;99.90;;;;;;5074655;28;19927;-82
2022/03/28 04:41:00;;;;;;;;;;;5.00;99.90;;;;;;5092505;28;19927;-82
2022/03/28 04:43:25;;;;;;;;;;;4.90;99.90;;;;;;5075265;28;20004;-81
2022/03/28 04:45:51;;;;;;;;;;;4.90;99.90;;;;;;5093229;28;20491;-82
2022/03/28 04:48:16;;;;;;;;;;;4.90;99.90;;;;;;5092140;28;19912;-82
2022/03/28 04:50:42;;;;;;;;;;;4.90;99.90;;;;;;5092125;28;19920;-82
2022/03/28 04:53:07;;;;;;;;;;;4.80;99.90;;;;;;5074220;28;20017;-82
2022/03/28 04:55:34;;;;;;;;;;;4.80;99.90;;;;;;5076123;28;19920;-83
2022/03/28 04:57:59;;;;;;;;;;;4.80;99.90;;;;;;5071934;28;20429;-83
2022/03/28 05:00:25;;;;;;;;;;;4.80;99.90;;;;;;5092674;28;20009;-83
2022/03/28 05:02:50;;;;;;;;;;;4.80;99.90;;;;;;5075659;28;20366;-82
2022/03/28 05:05:16;;;;;;;;;;;4.80;99.90;;;;;;5092503;28;19911;-82
2022/03/28 05:07:41;;;;;;;;;;;4.80;99.90;;;;;;5092539;28;19912;-82
2022/03/28 05:10:07;;;;;;;;;;;4.80;99.90;;;;;;5091936;28;20214;-82
2022/03/28 05:12:33;;;;;;;;;;;4.80;99.90;;;;;;5071475;28;20396;-82
2022/03/28 05:14:59;;;;;;;;;;;4.70;99.90;;;;;;5091825;28;19974;-82
2022/03/28 05:17:29;;;;;;;;;;;4.70;99.90;;;;;;5091862;28;19916;-82
2022/03/28 05:19:55;;;;;;;;;;;4.80;99.90;;;;;;5092105;28;19961;-82
2022/03/28 05:22:21;;;;;;;;;;;4.80;99.90;;;;;;5092307;28;19916;-82
2022/03/28 05:24:47;;;;;;;;;;;4.80;99.90;;;;;;5092193;28;19951;-82
2022/03/28 05:27:13;;;;;;;;;;;4.80;99.90;;;;;;5093504;28;19916;-82
2022/03/28 05:29:39;;;;;;;;;;;4.80;99.90;;;;;;5076051;28;20011;-82
2022/03/28 05:32:04;;;;;;;;;;;4.80;99.90;;;;;;5076168;28;19916;-82
2022/03/28 05:34:30;;;;;;;;;;;4.80;99.90;;;;;;5092184;28;19924;-82
2022/03/28 05:37:09;;;;;;;;;;;4.80;99.90;;;;;;5075859;28;20006;-82
2022/03/28 05:39:36;;;;;;;;;;;4.90;99.90;;;;;;5091790;28;19915;-82
2022/03/28 05:42:02;;;;;;;;;;;4.90;99.90;;;;;;5092399;28;19916;-82
2022/03/28 05:44:28;;;;;;;;;;;4.90;99.90;;;;;;5072086;28;19924;-83
2022/03/28 05:46:54;;;;;;;;;;;4.90;99.90;;;;;;5092134;28;20314;-83
2022/03/28 05:49:22;;;;;;;;;;;5.00;99.90;;;;;;5092312;28;19912;-82
2022/03/28 05:51:48;;;;;;;;;;;5.00;99.90;;;;;;5091858;28;20290;-82
2022/03/28 05:54:13;;;;;;;;;;;5.00;99.90;;;;;;5092678;28;19999;-83
2022/03/28 05:56:39;;;;;;;;;;;5.10;99.90;;;;;;5092870;28;20367;-82
2022/03/28 05:59:07;;;;;;;;;;;5.20;99.90;;;;;;5075010;28;20011;-83
2022/03/28 06:01:36;;;;;;;;;;;5.20;99.90;;;;;;5091849;28;19971;-83
2022/03/28 06:04:02;;;;;;;;;;;5.30;99.90;;;;;;5075319;28;20530;-82
2022/03/28 06:06:27;;;;;;;;;;;5.30;99.90;;;;;;5075101;28;20002;-83
2022/03/28 06:08:53;;;;;;;;;;;5.40;99.90;;;;;;5092233;28;20007;-83
2022/03/28 06:11:19;;;;;;;;;;;5.50;99.90;;;;;;5092237;28;19916;-82
2022/03/28 06:13:44;;;;;;;;;;;5.50;99.90;;;;;;5071890;28;20260;-83
2022/03/28 06:16:10;;;;;;;;;;;5.60;99.90;;;;;;5091805;28;19959;-82
2022/03/28 06:18:35;;;;;;;;;;;5.70;99.90;;;;;;5075069;28;19956;-81
2022/03/28 06:21:01;;;;;;;;;;;5.90;99.90;;;;;;5092332;28;20378;-81
2022/03/28 06:23:26;;;;;;;;;;;6.00;99.90;;;;;;5075199;28;19920;-83
2022/03/28 06:25:52;;;;;;;;;;;6.10;99.90;;;;;;5094590;28;19947;-82
2022/03/28 06:28:18;;;;;;;;;;;6.20;99.90;;;;;;5095107;28;19916;-81
2022/03/28 06:30:43;;;;;;;;;;;6.30;99.90;;;;;;5094962;28;19916;-83
2022/03/28 06:33:09;;;;;;;;;;;6.40;99.90;;;;;;5093206;28;19919;-82
2022/03/28 06:35:34;;;;;;;;;;;6.40;99.90;;;;;;5074467;28;19924;-83
2022/03/28 06:38:00;;;;;;;;;;;6.50;99.90;;;;;;5073812;28;20010;-82
2022/03/28 06:40:27;;;;;;;;;;;6.50;99.90;;;;;;5073797;28;19954;-83
2022/03/28 06:42:53;;;;;;;;;;;6.50;99.90;;;;;;5077222;28;20333;-81
2022/03/28 06:45:18;;;;;;;;;;;6.50;99.90;;;;;;5109645;28;19924;-81
2022/03/28 06:47:50;;;;;;;;;;;6.60;99.90;;;;;;5074760;28;19924;-81
2022/03/28 06:50:16;;;;;;;;;;;6.60;99.90;;;;;;5093961;28;19916;-81
2022/03/28 06:52:41;;;;;;;;;;;6.70;99.90;;;;;;5091417;23;20015;-84
2022/03/28 06:55:07;;;;;;;;;;;6.80;99.90;;;;;;5088621;28;19924;-83
2022/03/28 06:57:32;;;;;;;;;;;6.90;99.90;;;;;;5089043;28;19916;-86
2022/03/28 06:59:58;;;;;;;;;;;7.00;99.90;;;;;;5089812;28;19923;-83
2022/03/28 07:02:23;;;;;;;;;;;7.10;99.90;;;;;;5088550;28;20360;-83
2022/03/28 07:04:49;;;;;;;;;;;7.10;99.90;;;;;;5088565;28;19920;-84
2022/03/28 07:07:14;;;;;;;;;;;7.20;99.90;;;;;;5088803;28;19923;-84
2022/03/28 07:09:40;;;;;;;;;;;7.30;99.90;;;;;;5088269;28;19920;-83
2022/03/28 07:12:05;;;;;;;;;;;7.40;99.90;;;;;;5070092;28;20396;-83
2022/03/28 07:14:31;;;;;;;;;;;7.40;99.90;;;;;;5089824;28;20273;-83
2022/03/28 07:16:57;;;;;;;;;;;7.50;99.90;;;;;;5089071;28;19916;-87
2022/03/28 07:19:22;;;;;;;;;;;7.60;99.90;;;;;;5088470;28;19916;-83
2022/03/28 07:21:48;;;;;;;;;;;7.70;99.90;;;;;;5090061;28;20364;-83
2022/03/28 07:24:15;;;;;;;;;;;7.80;99.90;;;;;;5088104;28;20443;-84
2022/03/28 07:26:44;;;;;;;;;;;7.90;99.90;;;;;;5090330;28;19916;-83
2022/03/28 07:29:09;;;;;;;;;;;7.90;99.90;;;;;;5088444;28;19999;-84
2022/03/28 07:31:39;;;;;;;;;;;8.00;99.90;;;;;;5090020;28;20003;-83
2022/03/28 07:36:51;;;;;;;;;;;8.20;99.90;;;;;;5089104;28;19927;-83
2022/03/28 07:39:18;;;;;;;;;;;8.30;99.90;;;;;;5081476;28;19944;-83
2022/03/28 07:41:44;;;;;;;;;;;8.40;99.90;;;;;;5088496;28;19955;-85
2022/03/28 07:44:09;;;;;;;;;;;8.50;99.90;;;;;;5070594;28;19947;-84
2022/03/28 07:46:35;;;;;;;;;;;8.60;99.90;;;;;;5089049;28;19938;-83
2022/03/28 07:49:00;;;;;;;;;;;8.70;99.90;;;;;;5087740;28;20356;-84
2022/03/28 07:51:26;;;;;;;;;;;8.80;99.90;;;;;;5064884;28;19916;-86
2022/03/28 07:53:54;;;;;;;;;;;9.00;99.90;;;;;;5088545;28;20376;-83
2022/03/28 07:56:19;;;;;;;;;;;9.10;99.90;;;;;;5088618;28;19928;-83
2022/03/28 07:58:45;;;;;;;;;;;9.10;99.90;;;;;;5089383;28;19923;-83
2022/03/28 08:01:11;;;;;;;;;;;9.30;99.90;;;;;;5088551;28;20341;-84
2022/03/28 08:03:36;;;;;;;;;;;9.40;99.90;;;;;;5090704;28;19996;-86
2022/03/28 08:06:02;;;;;;;;;;;9.50;99.90;;;;;;5092456;28;20287;-84
2022/03/28 08:08:28;;;;;;;;;;;9.60;99.90;;;;;;5075174;28;19916;-83
2022/03/28 08:10:55;;;;;;;;;;;9.80;99.90;;;;;;5075782;28;19912;-83
2022/03/28 08:13:20;;;;;;;;;;;9.80;99.90;;;;;;5075827;28;19913;-84
2022/03/28 08:15:46;;;;;;;;;;;10.00;99.90;;;;;;5092140;28;20307;-83
2022/03/28 08:18:11;;;;;;;;;;;10.10;99.90;;;;;;5075409;28;19966;-86
2022/03/28 08:20:37;;;;;;;;;;;10.20;99.90;;;;;;5092234;28;19924;-84
2022/03/28 08:23:02;;;;;;;;;;;10.40;99.90;;;;;;5093681;28;20344;-83
2022/03/28 08:25:29;;;;;;;;;;;10.50;99.90;;;;;;5093611;28;19919;-84
2022/03/28 08:27:55;;;;;;;;;;;10.70;99.90;;;;;;5093771;28;19939;-86
2022/03/28 08:30:20;;;;;;;;;;;10.80;99.90;;;;;;5092921;28;20364;-84
2022/03/28 08:32:48;;;;;;;;;;;11.00;99.90;;;;;;5075401;28;19920;-83
2022/03/28 08:35:14;;;;;;;;;;;11.10;99.90;;;;;;5092130;28;19927;-83
2022/03/28 08:37:40;;;;;;;;;;;11.20;99.90;;;;;;5093363;28;19912;-83
2022/03/28 08:40:06;;;;;;;;;;;11.40;99.90;;;;;;5091783;28;20033;-84
2022/03/28 08:42:33;;;;;;;;;;;11.50;99.90;;;;;;5091618;28;20296;-87
2022/03/28 08:45:01;;;;;;;;;;;11.70;99.90;;;;;;5091918;28;20379;-83
2022/03/28 08:47:27;;;;;;;;;;;11.80;99.90;;;;;;5092079;28;20375;-83
2022/03/28 08:49:53;;;;;;;;;;;11.90;99.90;;;;;;5092757;28;19913;-84
2022/03/28 08:52:20;;;;;;;;;;;12.00;99.90;;;;;;5091874;28;20330;-83
2022/03/28 08:54:46;;;;;;;;;;;12.10;99.90;;;;;;5093010;28;19923;-84
2022/03/28 08:57:13;;;;;;;;;;;12.10;99.90;;;;;;5092927;28;19939;-85
2022/03/28 08:59:38;;;;;;;;;;;12.20;99.90;;;;;;5074478;28;19916;-84
2022/03/28 09:02:04;;;;;;;;;;;12.30;99.90;;;;;;5092597;28;19916;-83
2022/03/28 09:04:30;;;;;;;;;;;12.30;99.90;;;;;;5092155;28;19916;-86
2022/03/28 09:06:57;;;;;;;;;;;12.40;99.90;;;;;;5092515;28;19919;-85
2022/03/28 09:09:27;;;;;;;;;;;12.50;99.90;;;;;;5091094;28;19937;-84
2022/03/28 09:11:57;;;;;;;;;;;12.60;99.90;;;;;;5084778;28;19912;-83
2022/03/28 09:14:23;;;;;;;;;;;12.70;99.90;;;;;;5091786;28;19912;-84
2022/03/28 09:16:59;;;;;;;;;;;12.80;99.90;;;;;;5091987;28;19912;-84
2022/03/28 09:19:25;;;;;;;;;;;12.90;99.90;;;;;;5091710;28;19916;-83
2022/03/28 09:21:50;;;;;;;;;;;13.00;99.90;;;;;;5091496;28;19923;-84
2022/03/28 09:24:16;;;;;;;;;;;13.10;99.90;;;;;;5092045;28;20425;-85
2022/03/28 09:26:42;;;;;;;;;;;13.20;99.90;;;;;;5090387;28;19923;-83
2022/03/28 09:29:11;;;;;;;;;;;13.30;99.90;;;;;;5089666;28;19916;-83
2022/03/28 09:31:37;;;;;;;;;;;13.30;99.90;;;;;;5091522;28;20395;-86
2022/03/28 09:34:03;;;;;;;;;;;13.50;99.90;;;;;;5073236;28;20273;-83
2022/03/28 09:36:37;;;;;;;;;;;13.60;99.70;;;;;;5092220;28;19922;-85
2022/03/28 09:39:04;;;;;;;;;;;13.70;99.20;;;;;;5091479;28;20116;-83
2022/03/28 09:41:30;;;;;;;;;;;13.70;98.90;;;;;;5090475;28;20223;-83
2022/03/28 09:43:55;;;;;;;;;;;13.90;98.50;;;;;;5090292;28;19963;-83
2022/03/28 09:46:25;;;;;;;;;;;13.90;96.90;;;;;;5090640;28;20334;-84
2022/03/28 09:48:51;;;;;;;;;;;14.00;95.60;;;;;;5089594;28;19946;-85
2022/03/28 09:51:18;;;;;;;;;;;14.10;94.10;;;;;;5092096;28;20342;-83
2022/03/28 09:53:43;;;;;;;;;;;14.20;94.60;;;;;;5089888;28;19927;-83
2022/03/28 09:56:10;;;;;;;;;;;14.30;95.60;;;;;;5091376;28;19916;-86
2022/03/28 09:58:46;;;;;;;;;;;14.40;95.50;;;;;;5069555;28;19967;-83
2022/03/28 10:01:19;;;;;;;;;;;14.50;94.20;;;;;;5082335;28;19916;-83
2022/03/28 10:03:46;;;;;;;;;;;14.60;94.20;;;;;;5091227;28;19924;-83
2022/03/28 10:06:11;;;;;;;;;;;14.70;93.50;;;;;;5091134;28;20251;-86
2022/03/28 10:08:38;;;;;;;;;;;14.80;92.50;;;;;;5089779;28;19962;-83
2022/03/28 10:11:04;;;;;;;;;;;14.90;91.70;;;;;;5091000;28;19916;-83
2022/03/28 10:13:30;;;;;;;;;;;15.00;91.70;;;;;;5090885;28;19920;-83
2022/03/28 10:15:57;;;;;;;;;;;15.10;91.40;;;;;;5089906;28;20292;-84
2022/03/28 10:18:24;;;;;;;;;;;15.10;90.90;;;;;;5089276;28;20367;-83
2022/03/28 10:20:54;;;;;;;;;;;15.20;90.10;;;;;;5073220;28;19997;-84
2022/03/28 10:23:22;;;;;;;;;;;15.30;86.80;;;;;;5089672;28;19916;-84
2022/03/28 10:25:48;;;;;;;;;;;15.50;85.00;;;;;;5090205;28;19919;-83
2022/03/28 10:28:17;;;;;;;;;;;15.60;82.40;;;;;;5071893;28;19999;-83
2022/03/28 10:30:44;;;;;;;;;;;15.70;75.90;;;;;;5089947;28;19965;-83
2022/03/28 10:33:16;;;;;;;;;;;15.80;75.00;;;;;;5090684;28;19963;-83
2022/03/28 10:35:55;;;;;;;;;;;15.90;71.30;;;;;;5088970;28;19965;-83
2022/03/28 10:38:21;;;;;;;;;;;16.00;69.70;;;;;;5090285;28;20447;-86
2022/03/28 10:40:59;;;;;;;;;;;16.10;70.70;;;;;;5090276;28;20383;-85
2022/03/28 10:43:29;;;;;;;;;;;16.20;70.90;;;;;;5081263;28;19922;-86
2022/03/28 10:45:56;;;;;;;;;;;16.30;71.90;;;;;;5090489;28;20147;-84
2022/03/28 10:48:33;;;;;;;;;;;16.30;71.20;;;;;;5090790;28;19912;-85
2022/03/28 10:51:07;;;;;;;;;;;16.30;65.30;;;;;;5089135;28;19931;-84
2022/03/28 10:53:39;;;;;;;;;;;16.40;60.60;;;;;;5102900;28;19927;-85
2022/03/28 10:56:25;;;;;;;;;;;16.60;56.00;;;;;;5069344;28;19928;-84
2022/03/28 10:58:54;;;;;;;;;;;16.70;54.10;;;;;;5070140;28;19912;-83
2022/03/28 11:01:26;;;;;;;;;;;16.90;52.90;;;;;;5070588;28;19916;-83
2022/03/28 11:03:54;;;;;;;;;;;16.90;52.80;;;;;;5070518;28;19909;-86
2022/03/28 11:06:39;;;;;;;;;;;16.90;53.40;;;;;;5068939;28;20381;-84
2022/03/28 11:09:05;;;;;;;;;;;17.00;50.30;;;;;;5070029;28;19920;-85
2022/03/28 11:11:33;;;;;;;;;;;17.00;50.20;;;;;;5070273;28;19915;-84
2022/03/28 11:14:03;;;;;;;;;;;17.10;50.50;;;;;;5070521;28;19999;-83
2022/03/28 11:16:39;;;;;;;;;;;17.20;49.90;;;;;;5070286;28;19917;-84
2022/03/28 11:19:29;;;;;;;;;;;17.40;49.60;;;;;;5069898;28;19927;-84
2022/03/28 11:22:03;;;;;;;;;;;17.50;48.00;;;;;;5070229;28;20379;-84
2022/03/28 11:24:48;;;;;;;;;;;17.60;46.10;;;;;;5070448;28;20023;-83
2022/03/28 11:27:15;;;;;;;;;;;17.70;47.80;;;;;;5070197;28;19939;-84
2022/03/28 11:29:41;;;;;;;;;;;17.80;47.40;;;;;;5069907;28;19923;-84
2022/03/28 11:32:11;;;;;;;;;;;17.90;43.30;;;;;;5069961;28;20297;-84
2022/03/28 11:34:37;;;;;;;;;;;17.90;42.20;;;;;;5068915;28;19999;-86
2022/03/28 11:37:03;;;;;;;;;;;18.00;39.40;;;;;;5071099;28;19909;-84
2022/03/28 11:39:31;;;;;;;;;;;18.10;38.00;;;;;;5074044;28;19909;-84
2022/03/28 11:41:57;;;;;;;;;;;18.10;36.30;;;;;;5074004;28;19908;-84
2022/03/28 11:44:24;;;;;;;;;;;18.20;38.40;;;;;;5089872;28;20038;-84
2022/03/28 11:47:01;;;;;;;;;;;18.20;37.40;;;;;;5074242;28;19916;-84
2022/03/28 11:49:26;;;;;;;;;;;18.20;37.40;;;;;;5081736;28;19915;-88
2022/03/28 11:51:52;;;;;;;;;;;18.30;39.20;;;;;;5093696;28;19924;-84
2022/03/28 11:54:18;;;;;;;;;;;18.40;38.40;;;;;;5093785;28;19912;-84
2022/03/28 11:59:30;;;;;;;;;;;18.60;40.80;;;;;;5093669;28;19962;-86
2022/03/28 12:01:59;;;;;;;;;;;18.70;37.70;;;;;;5092476;28;19927;-86
2022/03/28 12:04:25;;;;;;;;;;;18.80;37.40;;;;;;5093649;28;19927;-85
2022/03/28 12:06:52;;;;;;;;;;;18.80;36.90;;;;;;5093705;28;20204;-84
2022/03/28 12:09:20;;;;;;;;;;;18.90;37.20;;;;;;5093147;28;19935;-86
2022/03/28 12:11:50;;;;;;;;;;;18.90;35.30;;;;;;5091718;28;19920;-83
2022/03/28 12:14:16;;;;;;;;;;;18.90;35.30;;;;;;5091770;28;19917;-84
2022/03/28 12:16:49;;;;;;;;;;;18.90;36.40;;;;;;5093755;28;20288;-84
2022/03/28 12:19:15;;;;;;;;;;;18.90;33.80;;;;;;5093099;28;20289;-86
2022/03/28 12:21:41;;;;;;;;;;;18.90;32.30;;;;;;5093371;28;20465;-86
2022/03/28 12:24:06;;;;;;;;;;;18.80;33.10;;;;;;5091775;28;20068;-84
2022/03/28 12:26:40;;;;;;;;;;;18.90;33.40;;;;;;5075186;28;19923;-84
2022/03/28 12:29:06;;;;;;;;;;;18.90;31.70;;;;;;5091526;28;19920;-84
2022/03/28 12:31:31;;;;;;;;;;;18.90;32.40;;;;;;5091738;28;20008;-85
2022/03/28 12:33:57;;;;;;;;;;;18.90;34.10;;;;;;5093015;28;19918;-84
2022/03/28 12:36:25;;;;;;;;;;;19.00;35.10;;;;;;5091875;28;20356;-85
2022/03/28 12:38:56;;;;;;;;;;;19.00;33.90;;;;;;5093163;28;19947;-84
2022/03/28 12:41:22;;;;;;;;;;;19.10;36.20;;;;;;5091972;28;19916;-86
2022/03/28 12:43:51;;;;;;;;;;;19.20;35.30;;;;;;5093138;28;19918;-84
2022/03/28 12:46:17;;;;;;;;;;;19.20;33.70;;;;;;5093177;28;19922;-85
2022/03/28 12:48:43;;;;;;;;;;;19.20;32.90;;;;;;5091915;28;20011;-84
2022/03/28 12:51:09;;;;;;;;;;;19.30;33.70;;;;;;5091474;28;20336;-84
2022/03/28 12:53:35;;;;;;;;;;;19.30;35.80;;;;;;5098908;22;20024;-84
2022/03/28 12:56:18;;;;;;;;;;;19.40;35.00;;;;;;5064626;28;19920;-85
2022/03/28 12:58:53;;;;;;;;;;;19.50;33.10;;;;;;5035676;28;19937;-85
2022/03/28 13:01:23;;;;;;;;;;;19.50;32.70;;;;;;5053445;28;20266;-84
2022/03/28 13:03:49;;;;;;;;;;;19.50;32.60;;;;;;5068722;28;20371;-85
2022/03/28 13:06:16;;;;;;;;;;;19.50;32.50;;;;;;5067478;28;19923;-84
2022/03/28 13:08:43;;;;;;;;;;;19.60;34.00;;;;;;5067296;28;19909;-85
2022/03/28 13:11:10;;;;;;;;;;;19.60;34.00;;;;;;5055270;28;19983;-84
2022/03/28 13:13:36;;;;;;;;;;;19.60;31.90;;;;;;5064101;28;20350;-84
2022/03/28 13:16:01;;;;;;;;;;;19.60;32.90;;;;;;5069146;28;19924;-85
2022/03/28 13:18:27;;;;;;;;;;;19.70;31.60;;;;;;5058435;28;19962;-85
2022/03/28 13:20:55;;;;;;;;;;;19.60;32.30;;;;;;5074337;28;19916;-85
2022/03/28 13:23:24;;;;;;;;;;;19.60;33.00;;;;;;5073695;28;20148;-85
2022/03/28 13:25:50;;;;;;;;;;;19.50;32.10;;;;;;5070233;28;19917;-86
2022/03/28 13:28:16;;;;;;;;;;;19.50;32.40;;;;;;5077474;28;19935;-85
2022/03/28 13:30:52;;;;;;;;;;;19.60;34.30;;;;;;5070899;28;19923;-85
2022/03/28 13:33:18;;;;;;;;;;;19.80;33.80;;;;;;5059532;28;19913;-85
2022/03/28 13:35:44;;;;;;;;;;;20.00;32.10;;;;;;5068179;28;19913;-85
2022/03/28 13:38:11;;;;;;;;;;;20.10;32.60;;;;;;5081919;28;19913;-84
2022/03/28 13:40:37;;;;;;;;;;;20.20;30.60;;;;;;5096869;28;19908;-84
2022/03/28 13:43:03;;;;;;;;;;;20.30;31.90;;;;;;5096816;28;19951;-84
2022/03/28 13:45:30;;;;;;;;;;;20.40;33.10;;;;;;5088332;28;20580;-84
2022/03/28 13:47:56;;;;;;;;;;;20.50;32.90;;;;;;5072736;28;20041;-84
2022/03/28 13:50:21;;;;;;;;;;;20.40;32.00;;;;;;5072890;28;19954;-84
2022/03/28 13:52:47;;;;;;;;;;;20.30;32.70;;;;;;5072999;28;20511;-84
2022/03/28 13:55:12;;;;;;;;;;;20.30;33.10;;;;;;5073173;28;20291;-84
2022/03/28 13:57:38;;;;;;;;;;;20.20;33.30;;;;;;5072876;28;19917;-84
2022/03/28 14:00:04;;;;;;;;;;;20.20;33.80;;;;;;5072851;28;19962;-84
2022/03/28 14:02:31;;;;;;;;;;;20.20;33.70;;;;;;5072494;28;19912;-84
2022/03/28 14:04:56;;;;;;;;;;;20.20;32.90;;;;;;5072732;28;19939;-85
2022/03/28 14:07:22;;;;;;;;;;;20.20;33.70;;;;;;5073022;28;19908;-85
2022/03/28 14:09:48;;;;;;;;;;;20.30;34.80;;;;;;5072692;28;19962;-85
2022/03/28 14:12:13;;;;;;;;;;;20.30;34.80;;;;;;5071002;28;20311;-85
2022/03/28 14:14:39;;;;;;;;;;;20.40;35.10;;;;;;5071380;28;19919;-85
2022/03/28 14:17:04;;;;;;;;;;;20.50;34.30;;;;;;5072723;28;19912;-85
2022/03/28 14:19:30;;;;;;;;;;;20.60;33.20;;;;;;5072552;28;19908;-84
2022/03/28 14:21:56;;;;;;;;;;;20.50;31.50;;;;;;5072197;28;19999;-85
2022/03/28 14:24:21;;;;;;;;;;;20.40;31.60;;;;;;5071994;28;20002;-84
2022/03/28 14:26:47;;;;;;;;;;;20.30;31.30;;;;;;5072214;28;19924;-84